Airfield :
LOGIN :

Register | Disclaimer

   EN    FR    IT 

 










Legend :    VFR   Marginal VFR   IFR   Intensive IFR   Very Intensive IFR
Visi :
Ceiling :
>= 8 km
>= 3000ft
5 to 8 km
1000 to 3000 ft
1500m to 5 km
500 to 1000 ft
800 to 1500m
200 to 500 ft
< 800m
< 200 ft
Symbols :   Thunderstorms  Fog  Heavy snow  Heavy precipitations  Wind > 20 kt
SIGMETs :     Misc.  Thunderstorms  Icing  Turbulence  Mountain Waves  Volcanic Ashes







- Airport Elevation : 1910 ft
- IATA code : RDZ
- Download approach charts


LFCR - Rodez

CURRENT METAR :
  • 141830Z AUTO 24013G25KT 9999 FEW019 BKN028 BKN047 08/06 Q1008 TEMPO 3000 SHRA BKN010

EXPIRED METARs :
  • 141700Z AUTO 25014KT 9999 SCT018 SCT025 BKN032 08/06 Q1008 TEMPO 24016G30KT 3000 SHRA BKN010TCU
  • 141630Z AUTO 25014KT 9999 BKN017 BKN028 BKN050 07/05 Q1008 TEMPO 24016G30KT 3000 SHRA BKN010TCU
  • 141600Z AUTO 25015KT 9999 SCT018 BKN024 BKN033 08/06 Q1009 TEMPO 24016G30KT 3000 SHRA BKN010TCU

TAF TAF LFCR
Valid from the 14 at 18:00 until the 15 at 18:00 UTC


141700Z 1418/1518 25010KT 9999 BKN014 BKN022
TEMPO 1418/1422 26018G33KT 3000 SHRA BKN010
BECMG 1422/1424 27022G35KT
TEMPO 1500/1504 3000 RA BKN006 BKN015
BECMG 1504/1506 25010KT
TEMPO 1508/1518 27015G25KT 4000 SHRA BKN010 BKN015TCU
No reported NOTAMs for that airfield.
4 SIGMETs reported for the Bordeaux FIR (LFBB) :
 
Severe turbulence
LFBB SIGMET 5 VALID 141700/142000 LFPW
LFBB BORDEAUX FIR/UIR SEV TURB OBS AT 1700Z N OF LINE N4630 W00130 - N4600 E00300 FL160/300 STNR NC=
Severe turbulence
LFBB SIGMET 4 VALID 141830/142000 LFPW
LFBB BORDEAUX FIR/UIR SEV TURB FCST WI N4600 E00300 - N4345 E00245 - N4545 E00200 - N4600 E00300 SFC/FL080 STNR NC=
Severe turbulence
LFBB SIGMET 3 VALID 141700/142000 LFPW
LFBB BORDEAUX FIR/UIR SEV TURB FCST W OF LINE N4300 W00115 - N4630 W00045 SFC/FL050 STNR NC=
Severe turbulence
LFBB SIGMET 2 VALID 141430/141830 LFPW
LFBB BORDEAUX FIR/UIR SEV TURB FCST WI N4630 E00300 - N4345 E00245 - N4600 E00130 - N4630 E00300 SFC/FL080 STNR INTSF=



MET'MAP, your aeronautical weather chart ! - Copyright ORBIFLY December 2007 - Disclaimer

ORBIFLY MET'MAP TEAM :

Programming & Development : Alexandra Zaïnal
Concept & Development : Baudouin d'Aumeries
Co-Development & Prog : Marc-Olivier Méhu
Technical & hardware support : Manuel Goepfert

Contact : metmap@orbifly.com




SOURCES & CREDITS :

   NOAA